Time;durP1;ratioP1;P1;durP2;ratioP2;P2;SDS_P1;SDS_P2;PMS_P1;PMS_P2;Temp;Humidity;BMP_temperature;BMP_pressure;BME280_temperature;BME280_humidity;BME280_pressure;Samples;Min_cycle;Max_cycle;Signal;HPM_P1;HPM_P2
2022/12/09 00:00:14;;;;;;;;;;;;;;;11.85;62.59;98795.13;4979587;28;19918;-77
2022/12/09 00:02:39;;;;;;;;;;;;;;;11.83;62.83;98805.72;4978942;28;19925;-77
2022/12/09 00:05:05;;;;;;;;;;;;;;;11.83;62.75;98812.72;4979078;28;20004;-77
2022/12/09 00:07:30;;;;;;;;;;;;;;;11.82;62.52;98817.13;4978950;28;19922;-77
2022/12/09 00:09:55;;;;;;;;;;;;;;;11.82;62.45;98818.91;4979563;28;19965;-77
2022/12/09 00:12:21;;;;;;;;;;;;;;;11.82;62.91;98813.69;4979488;28;19924;-77
2022/12/09 00:14:46;;;;;;;;;;;;;;;11.81;62.65;98820.69;4997280;28;19918;-77
2022/12/09 00:17:11;;;;;;;;;;;;;;;11.81;62.49;98810.22;4999096;28;19976;-76
2022/12/09 00:19:36;;;;;;;;;;;;;;;11.82;62.58;98816.31;5003343;28;20527;-76
2022/12/09 00:22:02;;;;;;;;;;;;;;;11.80;62.59;98816.44;4982351;28;19918;-76
2022/12/09 00:24:27;;;;;;;;;;;;;;;11.80;62.87;98816.44;4979076;28;19922;-77
2022/12/09 00:26:52;;;;;;;;;;;;;;;11.80;62.67;98813.81;4996236;28;20084;-77
2022/12/09 00:29:18;;;;;;;;;;;;;;;11.81;62.66;98819.88;4996565;28;20357;-77
2022/12/09 00:31:43;;;;;;;;;;;;;;;11.81;62.61;98806.78;4978384;28;20404;-76
2022/12/09 00:34:09;;;;;;;;;;;;;;;11.81;62.95;98806.78;4995936;28;20028;-76
2022/12/09 00:36:35;;;;;;;;;;;;;;;11.82;62.79;98805.84;4961899;28;19918;-76
2022/12/09 00:39:00;;;;;;;;;;;;;;;11.81;62.41;98810.22;4978393;28;20308;-77
2022/12/09 00:41:25;;;;;;;;;;;;;;;11.81;62.53;98820.69;4978433;28;19918;-75
2022/12/09 00:43:51;;;;;;;;;;;;;;;11.81;62.45;98815.47;4995311;28;19922;-76
2022/12/09 00:46:16;;;;;;;;;;;;;;;11.80;62.81;98819.03;4978419;28;19926;-78
2022/12/09 00:48:41;;;;;;;;;;;;;;;11.80;62.56;98810.34;4995602;28;19913;-77
2022/12/09 00:51:07;;;;;;;;;;;;;;;11.80;62.87;98813.81;4996061;28;20387;-77
2022/12/09 00:53:33;;;;;;;;;;;;;;;11.80;62.54;98816.44;4961866;28;19914;-76
2022/12/09 00:55:58;;;;;;;;;;;;;;;11.79;62.66;98812.13;4977932;28;20009;-77
2022/12/09 00:58:23;;;;;;;;;;;;;;;11.79;62.82;98803.47;4978155;28;19918;-77
2022/12/09 01:00:49;;;;;;;;;;;;;;;11.79;62.83;98801.69;4978290;28;19924;-77
2022/12/09 01:03:15;;;;;;;;;;;;;;;11.79;62.85;98816.56;4977950;28;19918;-76
2022/12/09 01:05:40;;;;;;;;;;;;;;;11.80;62.71;98816.44;4977867;28;19925;-75
2022/12/09 01:08:05;;;;;;;;;;;;;;;11.80;62.73;98818.19;4995261;28;19924;-75
2022/12/09 01:10:32;;;;;;;;;;;;;;;11.80;62.63;98824.28;4995376;28;19952;-77
2022/12/09 01:12:58;;;;;;;;;;;;;;;11.79;62.71;98817.38;4978186;28;19925;-78
2022/12/09 01:15:23;;;;;;;;;;;;;;;11.81;62.69;98827.72;4977434;28;20462;-76
2022/12/09 01:17:48;;;;;;;;;;;;;;;11.81;62.80;98825.09;4976958;28;19922;-76
2022/12/09 01:20:13;;;;;;;;;;;;;;;11.80;62.39;98826.03;4995038;28;19922;-76
2022/12/09 01:22:39;;;;;;;;;;;;;;;11.80;62.59;98816.44;4995102;28;19918;-77
2022/12/09 01:25:04;;;;;;;;;;;;;;;11.80;62.76;98810.34;4994995;28;19969;-76
2022/12/09 01:27:30;;;;;;;;;;;;;;;11.81;62.63;98809.41;4995143;28;20012;-76
2022/12/09 01:29:55;;;;;;;;;;;;;;;11.81;62.53;98796.31;4961580;28;20332;-76
2022/12/09 01:32:20;;;;;;;;;;;;;;;11.80;62.48;98799.88;4994924;28;19917;-76
2022/12/09 01:34:45;;;;;;;;;;;;;;;11.82;62.51;98798.00;4977474;28;19960;-76
2022/12/09 01:37:11;;;;;;;;;;;;;;;11.81;62.56;98801.56;4977962;28;20303;-77
2022/12/09 01:39:36;;;;;;;;;;;;;;;11.80;62.76;98794.66;4994979;28;19925;-77
2022/12/09 01:42:02;;;;;;;;;;;;;;;11.79;62.54;98796.44;4977570;28;19925;-78
2022/12/09 01:44:27;;;;;;;;;;;;;;;11.79;62.61;98787.78;4977228;28;19973;-77
2022/12/09 01:46:53;;;;;;;;;;;;;;;11.79;62.82;98796.44;4977398;28;19925;-77
2022/12/09 01:49:35;;;;;;;;;;;;;;;11.79;62.55;98798.25;4976318;28;19925;-77
2022/12/09 01:52:04;;;;;;;;;;;;;;;11.78;62.70;98797.41;4977459;28;20002;-77
2022/12/09 01:54:29;;;;;;;;;;;;;;;11.76;62.52;98800.16;4994109;28;19926;-76
2022/12/09 01:56:54;;;;;;;;;;;;;;;11.75;62.46;98803.72;4977014;28;19929;-76
2022/12/09 01:59:20;;;;;;;;;;;;;;;11.74;62.58;98815.13;4994459;28;19918;-76
2022/12/09 02:01:46;;;;;;;;;;;;;;;11.75;62.56;98808.13;4960361;28;19924;-76
2022/12/09 02:04:11;;;;;;;;;;;;;;;11.74;62.87;98803.84;4976840;28;19921;-76
2022/12/09 02:06:37;;;;;;;;;;;;;;;11.72;62.90;98798.72;4994227;28;19922;-76
2022/12/09 02:09:02;;;;;;;;;;;;;;;11.72;62.63;98787.44;4976624;28;19918;-76
2022/12/09 02:11:43;;;;;;;;;;;;;;;11.70;62.67;98784.97;4976871;28;19922;-78
2022/12/09 02:14:17;;;;;;;;;;;;;;;11.69;62.93;98785.91;4976864;28;19965;-77
2022/12/09 02:16:46;;;;;;;;;;;;;;;11.65;62.67;98786.25;4993980;28;20391;-76
2022/12/09 02:19:11;;;;;;;;;;;;;;;11.63;62.58;98794.22;4976592;28;20444;-77
2022/12/09 02:21:37;;;;;;;;;;;;;;;11.61;62.94;98804.00;4993907;28;19922;-77
2022/12/09 02:24:07;;;;;;;;;;;;;;;11.57;62.75;98805.19;4976786;28;19918;-77
2022/12/09 02:26:48;;;;;;;;;;;;;;;11.55;62.67;98815.75;4976792;28;19924;-77
2022/12/09 02:29:23;;;;;;;;;;;;;;;11.53;62.76;98816.84;4993943;28;19957;-77
2022/12/09 02:31:52;;;;;;;;;;;;;;;11.52;63.12;98820.41;4976733;28;20376;-77
2022/12/09 02:34:18;;;;;;;;;;;;;;;11.51;62.77;98829.19;4993706;28;20339;-75
2022/12/09 02:37:01;;;;;;;;;;;;;;;11.50;63.21;98823.13;4976464;28;19918;-77
2022/12/09 02:39:32;;;;;;;;;;;;;;;11.50;63.08;98824.94;4976320;28;20292;-76
2022/12/09 02:41:57;;;;;;;;;;;;;;;11.50;62.95;98817.09;4959957;28;19925;-75
2022/12/09 02:44:22;;;;;;;;;;;;;;;11.50;63.04;98814.47;4975485;28;19926;-76
2022/12/09 02:46:48;;;;;;;;;;;;;;;11.49;63.07;98811.00;4976271;28;20386;-76
2022/12/09 02:49:13;;;;;;;;;;;;;;;11.47;63.09;98806.88;4976190;28;19968;-77
2022/12/09 02:51:41;;;;;;;;;;;;;;;11.48;62.96;98813.75;4976225;28;19918;-76
2022/12/09 02:54:16;;;;;;;;;;;;;;;11.48;63.10;98814.59;4976852;28;19965;-78
2022/12/09 02:56:44;;;;;;;;;;;;;;;11.48;62.80;98814.59;4976343;28;19972;-80
2022/12/09 02:59:09;;;;;;;;;;;;;;;11.48;62.88;98816.34;4960247;28;19918;-80
2022/12/09 03:01:38;;;;;;;;;;;;;;;11.48;62.76;98811.97;4976122;28;19925;-81
2022/12/09 03:04:03;;;;;;;;;;;;;;;11.49;63.21;98818.03;4976041;28;19918;-81
2022/12/09 03:06:34;;;;;;;;;;;;;;;11.49;63.04;98818.03;4975430;28;20419;-81
2022/12/09 03:09:09;;;;;;;;;;;;;;;11.48;62.84;98814.59;4976159;28;19925;-80
2022/12/09 03:11:35;;;;;;;;;;;;;;;11.50;62.92;98812.69;4993309;28;19918;-81
2022/12/09 03:14:15;;;;;;;;;;;;;;;11.49;63.15;98816.22;4976651;28;19925;-81
2022/12/09 03:16:43;;;;;;;;;;;;;;;11.50;62.86;98817.91;4975832;28;20395;-81
2022/12/09 03:19:17;;;;;;;;;;;;;;;11.51;63.20;98823.97;4975765;28;20297;-81
2022/12/09 03:21:44;;;;;;;;;;;;;;;11.50;62.84;98820.53;4993213;28;19917;-78
2022/12/09 03:24:09;;;;;;;;;;;;;;;11.52;62.88;98817.78;4975857;28;20368;-79
2022/12/09 03:26:34;;;;;;;;;;;;;;;11.51;62.98;98811.75;4975894;28;19927;-80
2022/12/09 03:29:00;;;;;;;;;;;;;;;11.52;63.13;98813.38;4975829;28;20016;-79
2022/12/09 03:31:26;;;;;;;;;;;;;;;11.53;63.07;98817.66;4959432;28;19980;-81
2022/12/09 03:33:52;;;;;;;;;;;;;;;11.53;63.09;98816.84;4975875;28;19917;-81
2022/12/09 03:36:17;;;;;;;;;;;;;;;11.54;63.18;98811.50;4975945;28;20615;-81
2022/12/09 03:38:43;;;;;;;;;;;;;;;11.54;62.89;98819.34;4984400;28;19918;-80
2022/12/09 03:41:11;;;;;;;;;;;;;;;11.54;63.24;98815.88;4967265;28;19917;-81
2022/12/09 03:43:37;;;;;;;;;;;;;;;11.55;62.91;98828.00;4994266;28;19937;-81
2022/12/09 03:46:02;;;;;;;;;;;;;;;11.55;63.20;98823.59;4976139;28;19957;-81
2022/12/09 03:48:28;;;;;;;;;;;;;;;11.55;63.14;98815.75;4993317;28;19918;-81
2022/12/09 03:50:55;;;;;;;;;;;;;;;11.55;63.11;98823.59;4975718;28;19918;-80
2022/12/09 03:53:21;;;;;;;;;;;;;;;11.54;63.18;98823.72;4975899;28;19921;-81
2022/12/09 03:56:06;;;;;;;;;;;;;;;11.54;63.24;98837.63;4975870;28;20030;-80
2022/12/09 03:58:31;;;;;;;;;;;;;;;11.53;63.15;98849.03;4975494;28;20419;-80
2022/12/09 04:00:57;;;;;;;;;;;;;;;11.53;63.05;98843.00;4975457;28;19917;-80
2022/12/09 04:03:22;;;;;;;;;;;;;;;11.54;63.04;98847.25;4976080;28;19962;-82
2022/12/09 04:05:47;;;;;;;;;;;;;;;11.54;63.00;98850.72;4959502;28;20016;-81
2022/12/09 04:08:13;;;;;;;;;;;;;;;11.54;63.13;98848.09;4993013;28;19918;-80
2022/12/09 04:10:38;;;;;;;;;;;;;;;11.53;62.91;98846.41;4975418;28;19968;-81
2022/12/09 04:13:03;;;;;;;;;;;;;;;11.54;62.83;98844.63;4992733;28;19961;-81
2022/12/09 04:15:29;;;;;;;;;;;;;;;11.55;63.13;98848.91;4993208;28;20004;-81
2022/12/09 04:17:54;;;;;;;;;;;;;;;11.54;62.83;98847.25;4976699;28;19972;-81
2022/12/09 04:20:19;;;;;;;;;;;;;;;11.55;63.05;98841.91;4978865;28;20004;-81
2022/12/09 04:22:44;;;;;;;;;;;;;;;11.54;62.73;98847.25;4979029;28;20016;-81
2022/12/09 04:25:10;;;;;;;;;;;;;;;11.54;63.00;98840.25;4996135;28;19969;-79
2022/12/09 04:27:35;;;;;;;;;;;;;;;11.54;63.00;98845.47;4996096;28;20376;-81
2022/12/09 04:30:00;;;;;;;;;;;;;;;11.53;63.05;98837.75;4979092;28;19918;-80
2022/12/09 04:32:27;;;;;;;;;;;;;;;11.52;62.79;98844.75;4996187;28;19918;-80
2022/12/09 04:34:53;;;;;;;;;;;;;;;11.52;62.83;98847.38;4996078;28;19918;-82
2022/12/09 04:37:18;;;;;;;;;;;;;;;11.51;62.99;98840.50;4978656;28;20377;-81
2022/12/09 04:39:43;;;;;;;;;;;;;;;11.50;62.99;98845.84;4978507;28;19917;-81
2022/12/09 04:42:09;;;;;;;;;;;;;;;11.49;63.03;98845.00;4995667;28;20312;-81
2022/12/09 04:44:34;;;;;;;;;;;;;;;11.49;62.95;98847.59;4978062;28;19925;-82
2022/12/09 04:46:59;;;;;;;;;;;;;;;11.49;62.77;98849.41;4996011;28;19964;-80
2022/12/09 04:49:24;;;;;;;;;;;;;;;11.47;62.80;98844.28;4995769;28;20400;-80
2022/12/09 04:51:50;;;;;;;;;;;;;;;11.48;62.68;98852.94;4979109;28;19918;-81
2022/12/09 04:54:15;;;;;;;;;;;;;;;11.48;62.81;98850.34;4978044;28;20393;-80
2022/12/09 04:56:40;;;;;;;;;;;;;;;11.46;62.72;98845.22;4978297;28;19918;-81
2022/12/09 04:59:06;;;;;;;;;;;;;;;11.45;62.92;98845.34;4996109;28;19917;-85
2022/12/09 05:01:31;;;;;;;;;;;;;;;11.43;62.65;98848.06;4995621;28;19918;-80
2022/12/09 05:03:56;;;;;;;;;;;;;;;11.40;62.85;98849.16;4979214;28;20395;-78
2022/12/09 05:06:22;;;;;;;;;;;;;;;11.40;62.89;98857.00;4978178;28;20301;-80
2022/12/09 05:08:47;;;;;;;;;;;;;;;11.40;62.94;98856.16;4978264;28;20367;-79
2022/12/09 05:11:12;;;;;;;;;;;;;;;11.39;62.80;98849.28;4978071;28;19917;-79
2022/12/09 05:13:38;;;;;;;;;;;;;;;11.38;62.99;98845.00;4995730;28;20029;-79
2022/12/09 05:16:04;;;;;;;;;;;;;;;11.38;62.93;98840.59;4978099;28;20406;-80
2022/12/09 05:18:30;;;;;;;;;;;;;;;11.37;62.84;98843.34;4978008;28;19918;-79
2022/12/09 05:20:55;;;;;;;;;;;;;;;11.35;62.99;98842.63;4978533;28;20295;-80
2022/12/09 05:23:20;;;;;;;;;;;;;;;11.35;62.77;98842.63;4961515;28;19918;-80
2022/12/09 05:25:46;;;;;;;;;;;;;;;11.34;62.63;98852.25;4977908;28;19918;-79
2022/12/09 05:28:11;;;;;;;;;;;;;;;11.34;62.66;98844.41;4977567;28;19924;-79
2022/12/09 05:30:37;;;;;;;;;;;;;;;11.33;62.72;98847.97;4976540;28;19924;-80
2022/12/09 05:33:02;;;;;;;;;;;;;;;11.32;62.84;98840.25;4995276;28;20396;-80
2022/12/09 05:35:27;;;;;;;;;;;;;;;11.34;62.82;98846.22;4977715;28;19926;-80
2022/12/09 05:37:52;;;;;;;;;;;;;;;11.35;62.73;98846.09;4977610;28;19918;-80
2022/12/09 05:40:18;;;;;;;;;;;;;;;11.34;62.62;98851.44;4994920;28;19922;-80
2022/12/09 05:42:43;;;;;;;;;;;;;;;11.35;62.51;98860.91;4994776;28;19968;-79
2022/12/09 05:45:09;;;;;;;;;;;;;;;11.36;62.64;98849.53;4976985;28;19945;-79
2022/12/09 05:47:35;;;;;;;;;;;;;;;11.38;62.34;98855.47;4995095;28;20443;-79
2022/12/09 05:50:01;;;;;;;;;;;;;;;11.37;62.65;98853.81;4976637;28;19922;-80
2022/12/09 05:52:26;;;;;;;;;;;;;;;11.37;62.71;98852.03;4961126;28;19976;-79
2022/12/09 05:54:51;;;;;;;;;;;;;;;11.39;62.53;98860.56;4994799;28;19918;-80
2022/12/09 05:57:16;;;;;;;;;;;;;;;11.43;62.32;98862.94;4994356;28;20348;-79
2022/12/09 05:59:42;;;;;;;;;;;;;;;11.44;62.14;98862.00;4960786;28;19918;-79
2022/12/09 06:02:07;;;;;;;;;;;;;;;11.48;62.37;98866.88;4994546;28;19929;-80
2022/12/09 06:04:32;;;;;;;;;;;;;;;11.49;61.94;98871.13;4961323;28;19992;-80
2022/12/09 06:06:58;;;;;;;;;;;;;;;11.52;62.17;98872.69;4960817;28;19928;-80
2022/12/09 06:09:23;;;;;;;;;;;;;;;11.52;61.91;98862.22;4994178;28;19917;-80
2022/12/09 06:11:48;;;;;;;;;;;;;;;11.56;61.77;98868.91;4994336;28;19925;-79
2022/12/09 06:14:14;;;;;;;;;;;;;;;11.59;61.67;98877.31;4977824;28;19918;-80
2022/12/09 06:16:39;;;;;;;;;;;;;;;11.62;61.75;98889.31;4960728;28;20369;-79
2022/12/09 06:19:04;;;;;;;;;;;;;;;11.64;61.44;98887.41;4976939;28;20432;-80
2022/12/09 06:21:29;;;;;;;;;;;;;;;11.64;61.50;98889.19;4976678;28;19917;-79
2022/12/09 06:23:55;;;;;;;;;;;;;;;11.66;61.41;98900.38;4976657;28;20039;-81
2022/12/09 06:26:27;;;;;;;;;;;;;;;11.65;61.87;98896.91;4976804;28;19925;-81
2022/12/09 06:28:52;;;;;;;;;;;;;;;11.69;61.70;98884.44;4960597;28;19968;-82
2022/12/09 06:31:18;;;;;;;;;;;;;;;11.71;61.20;98888.59;4960900;28;19969;-79
2022/12/09 06:33:43;;;;;;;;;;;;;;;11.73;61.24;98889.31;4976617;28;19917;-80
2022/12/09 06:36:08;;;;;;;;;;;;;;;11.76;61.47;98893.44;4994108;28;19918;-80
2022/12/09 06:38:34;;;;;;;;;;;;;;;11.79;61.08;98901.06;4976614;28;19988;-80
2022/12/09 06:40:59;;;;;;;;;;;;;;;11.81;60.98;98899.16;4993696;28;19976;-82
2022/12/09 06:43:24;;;;;;;;;;;;;;;11.85;61.06;98895.34;4976402;28;19922;-81
2022/12/09 06:45:50;;;;;;;;;;;;;;;11.90;60.68;98893.19;4976384;28;19928;-81
2022/12/09 06:48:15;;;;;;;;;;;;;;;11.92;60.70;98891.34;4976816;28;19922;-81
2022/12/09 06:50:40;;;;;;;;;;;;;;;11.98;60.40;98900.47;4960229;28;19918;-82
2022/12/09 06:53:06;;;;;;;;;;;;;;;12.00;60.42;98900.34;4960665;28;19918;-81
2022/12/09 06:55:31;;;;;;;;;;;;;;;12.01;60.59;98902.84;4976757;28;20004;-80
2022/12/09 06:57:57;;;;;;;;;;;;;;;12.01;60.78;98894.16;5001103;28;19918;-80
2022/12/09 07:00:22;;;;;;;;;;;;;;;12.00;60.45;98888.13;4966045;28;19921;-80
2022/12/09 07:02:47;;;;;;;;;;;;;;;11.99;60.57;98881.22;4977102;28;19922;-80
2022/12/09 07:05:13;;;;;;;;;;;;;;;12.02;60.46;98887.97;4978596;28;19976;-82
2022/12/09 07:07:38;;;;;;;;;;;;;;;12.01;60.54;98891.56;4960085;28;19922;-81
2022/12/09 07:10:04;;;;;;;;;;;;;;;12.02;60.54;98890.59;4975875;28;19918;-80
2022/12/09 07:12:29;;;;;;;;;;;;;;;12.03;60.50;98893.06;4976574;28;20033;-80
2022/12/09 07:14:54;;;;;;;;;;;;;;;12.04;60.30;98894.75;4960460;28;19940;-80
2022/12/09 07:17:20;;;;;;;;;;;;;;;12.04;60.32;98899.97;4960792;28;20042;-79
2022/12/09 07:19:45;;;;;;;;;;;;;;;12.06;60.41;98898.06;4960172;28;20408;-80
2022/12/09 07:22:11;;;;;;;;;;;;;;;12.08;60.60;98893.56;4976021;28;19918;-81
2022/12/09 07:24:36;;;;;;;;;;;;;;;12.10;60.13;98899.50;4976051;28;19918;-82
2022/12/09 07:27:02;;;;;;;;;;;;;;;12.15;59.96;98908.78;4976572;28;20008;-81
2022/12/09 07:29:27;;;;;;;;;;;;;;;12.15;60.37;98904.38;4993684;28;19917;-80
2022/12/09 07:31:53;;;;;;;;;;;;;;;12.16;60.17;98892.09;4976711;28;20373;-83
2022/12/09 07:34:18;;;;;;;;;;;;;;;12.17;60.38;98885.91;4976596;28;19922;-83
2022/12/09 07:36:43;;;;;;;;;;;;;;;12.18;60.33;98895.44;4960337;28;20016;-81
2022/12/09 07:39:10;;;;;;;;;;;;;;;12.18;60.37;98905.91;4960192;28;19976;-81
2022/12/09 07:41:36;;;;;;;;;;;;;;;12.19;60.34;98910.16;4960864;28;19917;-81
2022/12/09 07:44:01;;;;;;;;;;;;;;;12.20;60.29;98911.84;4976585;28;19921;-80
2022/12/09 07:46:26;;;;;;;;;;;;;;;12.19;60.34;98904.94;4993556;28;20373;-82
2022/12/09 07:48:52;;;;;;;;;;;;;;;12.18;60.15;98911.16;4960175;28;19914;-82
2022/12/09 07:51:17;;;;;;;;;;;;;;;12.20;60.33;98920.53;4976938;28;19918;-82
2022/12/09 07:53:42;;;;;;;;;;;;;;;12.21;60.08;98924.00;4979350;28;19914;-80
2022/12/09 07:56:10;;;;;;;;;;;;;;;12.20;60.36;98919.69;4964019;28;20076;-79
2022/12/09 07:58:35;;;;;;;;;;;;;;;12.20;60.41;98931.00;4997187;28;19918;-80
2022/12/09 08:01:05;;;;;;;;;;;;;;;12.22;60.30;98928.25;4980019;28;20037;-82
2022/12/09 08:03:30;;;;;;;;;;;;;;;12.26;60.33;98929.69;4979836;28;20016;-80
2022/12/09 08:05:56;;;;;;;;;;;;;;;12.34;60.08;98932.50;4997243;28;19988;-81
2022/12/09 08:08:21;;;;;;;;;;;;;;;12.41;59.88;98930.22;4979839;28;20348;-80
2022/12/09 08:10:46;;;;;;;;;;;;;;;12.46;59.94;98923.66;4996709;28;19924;-81
2022/12/09 08:13:12;;;;;;;;;;;;;;;12.53;59.55;98925.78;4963376;28;19917;-79
2022/12/09 08:15:37;;;;;;;;;;;;;;;12.55;59.59;98927.31;4963729;28;19918;-82
2022/12/09 08:18:02;;;;;;;;;;;;;;;12.61;59.51;98926.81;4962996;28;19917;-82
2022/12/09 08:20:28;;;;;;;;;;;;;;;12.63;59.23;98924.06;4996508;28;19949;-82
2022/12/09 08:22:53;;;;;;;;;;;;;;;12.67;59.19;98933.34;4979525;28;19918;-79
2022/12/09 08:25:18;;;;;;;;;;;;;;;12.69;59.13;98925.38;4979454;28;19918;-81
2022/12/09 08:27:43;;;;;;;;;;;;;;;12.68;59.17;98929.75;4979599;28;19968;-81
2022/12/09 08:30:09;;;;;;;;;;;;;;;12.69;59.09;98936.66;4996098;28;19925;-80
2022/12/09 08:32:34;;;;;;;;;;;;;;;12.71;59.01;98934.75;4996256;28;20278;-81
2022/12/09 08:35:00;;;;;;;;;;;;;;;12.72;59.03;98925.94;4978900;28;19918;-81
2022/12/09 08:37:25;;;;;;;;;;;;;;;12.72;58.84;98925.13;4996107;28;19918;-80
2022/12/09 08:39:50;;;;;;;;;;;;;;;12.73;58.72;98926.75;4996812;28;19940;-83
2022/12/09 08:42:15;;;;;;;;;;;;;;;12.72;58.73;98925.94;4963161;28;20377;-81
2022/12/09 08:44:41;;;;;;;;;;;;;;;12.75;58.74;98930.94;4962467;28;20415;-82
2022/12/09 08:47:06;;;;;;;;;;;;;;;12.77;58.72;98923.75;4962684;28;19918;-81
2022/12/09 08:49:32;;;;;;;;;;;;;;;12.79;58.50;98916.63;4962527;28;19974;-81
2022/12/09 08:51:57;;;;;;;;;;;;;;;12.82;58.56;98916.38;4996308;28;19924;-81
2022/12/09 08:54:22;;;;;;;;;;;;;;;12.85;58.47;98917.91;4962384;28;20393;-80
2022/12/09 08:56:49;;;;;;;;;;;;;;;12.84;58.29;98913.63;4996104;28;19992;-80
2022/12/09 08:59:14;;;;;;;;;;;;;;;12.84;58.37;98905.78;4962523;28;19918;-82
2022/12/09 09:01:39;;;;;;;;;;;;;;;12.85;58.19;98910.03;4978925;28;20013;-81
2022/12/09 09:04:14;;;;;;;;;;;;;;;12.85;58.29;98905.63;4978445;28;19972;-81
2022/12/09 09:06:40;;;;;;;;;;;;;;;12.88;58.18;98903.72;4962193;28;19918;-82
2022/12/09 09:09:06;;;;;;;;;;;;;;;12.88;58.21;98903.72;4978294;28;19922;-81
2022/12/09 09:11:31;;;;;;;;;;;;;;;12.89;58.36;98900.13;4963087;28;19968;-81
2022/12/09 09:13:57;;;;;;;;;;;;;;;12.87;58.21;98897.63;4962321;28;19917;-80
2022/12/09 09:16:22;;;;;;;;;;;;;;;12.84;58.30;98896.13;4978834;28;20379;-82
2022/12/09 09:18:48;;;;;;;;;;;;;;;12.84;58.56;98890.06;4978274;28;19977;-80
2022/12/09 09:21:13;;;;;;;;;;;;;;;12.82;58.56;98884.94;4978212;28;20002;-80
2022/12/09 09:23:39;;;;;;;;;;;;;;;12.82;58.47;98887.56;4978799;28;20364;-81
2022/12/09 09:26:04;;;;;;;;;;;;;;;12.80;58.36;98881.59;4962223;28;20292;-80
2022/12/09 09:28:29;;;;;;;;;;;;;;;12.78;58.66;98874.84;4978567;28;19922;-82
2022/12/09 09:31:02;;;;;;;;;;;;;;;12.77;58.75;98876.63;4978092;28;19918;-80
2022/12/09 09:33:27;;;;;;;;;;;;;;;12.76;58.86;98866.25;4962130;28;19921;-79
2022/12/09 09:35:53;;;;;;;;;;;;;;;12.76;58.53;98869.72;4978068;28;19949;-83
2022/12/09 09:38:19;;;;;;;;;;;;;;;12.74;58.68;98869.00;4977522;28;19922;-80
2022/12/09 09:40:44;;;;;;;;;;;;;;;12.74;58.70;98857.72;4978423;28;19976;-81
2022/12/09 09:43:12;;;;;;;;;;;;;;;12.75;58.83;98854.16;4995173;28;19992;-82
2022/12/09 09:45:38;;;;;;;;;;;;;;;12.73;58.89;98851.66;4961292;28;19932;-83
2022/12/09 09:48:03;;;;;;;;;;;;;;;12.74;58.71;98850.66;4961740;28;19921;-80
2022/12/09 09:50:30;;;;;;;;;;;;;;;12.75;58.71;98846.28;4961464;28;19917;-80
2022/12/09 09:52:55;;;;;;;;;;;;;;;12.75;58.99;98852.34;4978116;28;19918;-81
2022/12/09 09:55:48;;;;;;;;;;;;;;;12.76;58.84;98840.06;4995321;28;19924;-80
2022/12/09 09:58:32;;;;;;;;;;;;;;;12.76;58.56;98825.19;4991379;28;19965;-80
2022/12/09 10:01:08;;;;;;;;;;;;;;;12.77;58.67;98821.59;4995020;28;20374;-80
2022/12/09 10:03:40;;;;;;;;;;;;;;;12.81;58.65;98824.81;4977501;28;19918;-81
2022/12/09 10:06:08;;;;;;;;;;;;;;;12.81;58.66;98824.81;4994904;28;19917;-81
2022/12/09 10:08:33;;;;;;;;;;;;;;;12.82;58.83;98826.47;4977159;28;19925;-82
2022/12/09 10:11:07;;;;;;;;;;;;;;;12.86;58.64;98830.50;4977521;28;19918;-82
2022/12/09 10:13:33;;;;;;;;;;;;;;;12.91;58.63;98830.94;4994934;28;19918;-81
2022/12/09 10:16:16;;;;;;;;;;;;;;;12.94;58.49;98829.84;4994345;28;19928;-80
2022/12/09 10:18:47;;;;;;;;;;;;;;;12.96;58.40;98826.13;4994463;28;19918;-79
2022/12/09 10:21:17;;;;;;;;;;;;;;;12.98;58.67;98820.75;4982468;28;19977;-81
2022/12/09 10:23:42;;;;;;;;;;;;;;;13.00;58.51;98819.66;4983541;28;19917;-80
2022/12/09 10:26:09;;;;;;;;;;;;;;;13.03;58.23;98814.16;4979825;28;20048;-79
2022/12/09 10:28:38;;;;;;;;;;;;;;;13.06;58.26;98810.44;4962430;28;19918;-80
2022/12/09 10:31:04;;;;;;;;;;;;;;;13.14;58.30;98807.16;4961127;28;19918;-83
2022/12/09 10:33:31;;;;;;;;;;;;;;;13.17;58.02;98802.50;4960883;28;19976;-82
2022/12/09 10:35:56;;;;;;;;;;;;;;;13.19;58.02;98805.00;4977113;28;19921;-81
2022/12/09 10:38:21;;;;;;;;;;;;;;;13.21;57.81;98798.66;4976871;28;20282;-81
2022/12/09 10:41:05;;;;;;;;;;;;;;;13.21;57.82;98801.28;4977233;28;19965;-81
2022/12/09 10:43:35;;;;;;;;;;;;;;;13.24;57.84;98794.94;4977162;28;20393;-84
2022/12/09 10:46:04;;;;;;;;;;;;;;;13.24;57.89;98791.50;4977294;28;20285;-83
2022/12/09 10:48:29;;;;;;;;;;;;;;;13.27;57.73;98788.63;4960331;28;20377;-81
2022/12/09 10:51:02;;;;;;;;;;;;;;;13.28;57.95;98775.34;4976559;28;19917;-82
2022/12/09 10:53:27;;;;;;;;;;;;;;;13.29;57.68;98777.00;4978058;28;20360;-89
2022/12/09 10:55:53;;;;;;;;;;;;;;;13.29;57.70;98766.53;4960404;28;19925;-81
2022/12/09 10:58:19;;;;;;;;;;;;;;;13.29;57.86;98763.09;4976730;28;19964;-81
2022/12/09 11:01:03;;;;;;;;;;;;;;;13.27;57.96;98762.41;4976444;28;19925;-80
2022/12/09 11:03:31;;;;;;;;;;;;;;;13.27;58.05;98759.78;4976728;28;20016;-82
2022/12/09 11:05:57;;;;;;;;;;;;;;;13.27;57.73;98762.41;4998204;28;19942;-86
2022/12/09 11:08:22;;;;;;;;;;;;;;;13.36;61.93;98751.97;4961776;28;19925;-84
2022/12/09 11:10:48;;;;;;;;;;;;;;;13.44;62.06;98753.91;4976637;28;20296;-81
2022/12/09 11:13:14;;;;;;;;;;;;;;;13.52;61.79;98751.44;4979284;28;19918;-85
2022/12/09 11:15:41;;;;;;;;;;;;;;;13.66;61.08;98744.13;4960031;28;20313;-80
2022/12/09 11:18:07;;;;;;;;;;;;;;;13.73;60.96;98753.13;4976457;28;19988;-80
2022/12/09 11:20:32;;;;;;;;;;;;;;;13.79;60.65;98738.63;4976245;28;19925;-81
2022/12/09 11:22:58;;;;;;;;;;;;;;;13.88;60.21;98740.41;4994746;28;19921;-84
2022/12/09 11:25:24;;;;;;;;;;;;;;;13.95;60.04;98725.78;4995502;28;19918;-84
2022/12/09 11:27:54;;;;;;;;;;;;;;;13.97;59.89;98729.09;4978843;28;20407;-86
2022/12/09 11:30:30;;;;;;;;;;;;;;;13.99;59.74;98726.34;4980266;28;20016;-77
2022/12/09 11:32:57;;;;;;;;;;;;;;;13.97;59.71;98726.47;4979995;28;19925;-77
2022/12/09 11:35:25;;;;;;;;;;;;;;;13.97;59.57;98736.97;4963827;28;19957;-77
2022/12/09 11:37:50;;;;;;;;;;;;;;;13.97;59.63;98728.28;4979751;28;19973;-77
2022/12/09 11:40:16;;;;;;;;;;;;;;;13.96;59.56;98727.44;4979938;28;20029;-78
2022/12/09 11:42:41;;;;;;;;;;;;;;;13.97;59.48;98723.03;4963736;28;20381;-76
2022/12/09 11:45:17;;;;;;;;;;;;;;;13.97;59.56;98723.03;4979548;28;20312;-76
2022/12/09 11:47:45;;;;;;;;;;;;;;;13.96;59.53;98726.59;4980134;28;19924;-82
2022/12/09 11:50:16;;;;;;;;;;;;;;;13.99;59.99;98714.03;4964116;28;20030;-74
2022/12/09 11:52:42;;;;;;;;;;;;;;;14.02;59.71;98719.00;4996916;28;19917;-76
2022/12/09 11:55:20;;;;;;;;;;;;;;;14.07;59.61;98716.81;4979455;28;19925;-74
2022/12/09 11:57:49;;;;;;;;;;;;;;;14.21;59.66;98712.09;4979289;28;19918;-78
2022/12/09 12:00:21;;;;;;;;;;;;;;;14.33;59.62;98713.59;4979887;28;20028;-75
2022/12/09 12:02:48;;;;;;;;;;;;;;;14.40;59.52;98708.59;4996718;28;20012;-74
2022/12/09 12:05:17;;;;;;;;;;;;;;;14.48;59.35;98711.31;4979103;28;19917;-75
2022/12/09 12:07:46;;;;;;;;;;;;;;;14.55;59.43;98716.81;4996936;28;20282;-73
2022/12/09 12:10:20;;;;;;;;;;;;;;;14.58;59.40;98716.53;4962910;28;20375;-73
2022/12/09 12:13:09;;;;;;;;;;;;;;;14.61;59.04;98711.88;4962560;28;19922;-74
2022/12/09 12:15:43;;;;;;;;;;;;;;;14.59;58.69;98713.78;4917912;29;19974;-74
2022/12/09 12:18:12;;;;;;;;;;;;;;;14.54;59.11;98705.50;4918229;29;19927;-80
2022/12/09 12:20:40;;;;;;;;;;;;;;;14.53;58.90;98710.91;4902684;29;19966;-80
2022/12/09 12:23:15;;;;;;;;;;;;;;;14.49;58.65;98705.09;4917894;29;19919;-76
2022/12/09 12:25:44;;;;;;;;;;;;;;;14.41;58.40;98705.81;4901747;29;20022;-75
2022/12/09 12:28:19;;;;;;;;;;;;;;;14.37;58.28;98703.63;4917313;29;19927;-75
2022/12/09 12:31:08;;;;;;;;;;;;;;;14.30;58.29;98698.94;4901293;29;19919;-73
2022/12/09 12:33:33;;;;;;;;;;;;;;;14.23;58.40;98703.09;4911882;29;20013;-75
2022/12/09 12:36:21;;;;;;;;;;;;;;;14.17;58.34;98695.78;4917026;29;20022;-76
2022/12/09 12:38:59;;;;;;;;;;;;;;;14.09;58.47;98690.41;4911263;29;19929;-78
2022/12/09 12:41:33;;;;;;;;;;;;;;;14.02;58.48;98698.00;4917576;29;19927;-78
2022/12/09 12:46:57;;;;;;;;;;;;;;;13.89;58.69;98695.69;4917442;29;20042;-78
2022/12/09 12:49:41;;;;;;;;;;;;;;;13.85;58.65;98699.56;4917312;29;19922;-78